createdAt,value
2023-05-10T00:00:26.203Z,100202.34
2023-05-10T00:02:52.566Z,100231.09
2023-05-10T00:05:18.969Z,100209.66
2023-05-10T00:07:45.220Z,100179.09
2023-05-10T00:10:11.610Z,100159.44
2023-05-10T00:12:37.890Z,100191.13
2023-05-10T00:15:04.316Z,100234.75
2023-05-10T00:17:30.592Z,100236.09
2023-05-10T00:19:56.840Z,100211.75
2023-05-10T00:22:23.124Z,100192.91
2023-05-10T00:24:51.458Z,100188.22
2023-05-10T00:27:17.671Z,100234.25
2023-05-10T00:29:43.905Z,100255.41
2023-05-10T00:32:10.141Z,100264.56
2023-05-10T00:34:36.388Z,100243.91
2023-05-10T00:37:02.587Z,100217.22
2023-05-10T00:39:28.802Z,100209.66
2023-05-10T00:41:55.045Z,100200.75
2023-05-10T00:44:21.251Z,100190.03
2023-05-10T00:46:47.641Z,100223.75
2023-05-10T00:49:13.850Z,100262.69
2023-05-10T00:51:40.060Z,100222.41
2023-05-10T00:54:06.297Z,100217.19
2023-05-10T00:56:32.568Z,100230.81
2023-05-10T00:58:58.794Z,100242.03
2023-05-10T01:01:25.302Z,100268.16
2023-05-10T01:03:51.564Z,100264.75
2023-05-10T01:06:17.802Z,100250.63
2023-05-10T01:08:44.066Z,100261.28
2023-05-10T01:11:10.291Z,100279.06
2023-05-10T01:13:37.235Z,100265.78
2023-05-10T01:16:03.564Z,100291.31
2023-05-10T01:18:30.521Z,100286.16
2023-05-10T01:21:05.466Z,100298.91
2023-05-10T01:23:46.434Z,100310.34
2023-05-10T01:26:19.667Z,100320.03
2023-05-10T01:29:04.783Z,100377.69
2023-05-10T01:31:49.018Z,100345.84
2023-05-10T01:34:20.462Z,100390.59
2023-05-10T01:36:48.453Z,100359.44
2023-05-10T01:39:17.478Z,100429.78
2023-05-10T01:41:46.649Z,100389.44
2023-05-10T01:44:15.818Z,100373.44
2023-05-10T01:46:42.069Z,100399.28
2023-05-10T01:49:16.976Z,100355.16
2023-05-10T01:51:45.780Z,100369.25
2023-05-10T01:54:11.984Z,100437.47
2023-05-10T01:56:38.227Z,100433.66
2023-05-10T01:59:06.376Z,100396.63
2023-05-10T02:01:32.597Z,100428.94
2023-05-10T02:03:58.859Z,100410.41
2023-05-10T02:06:25.144Z,100376.53
2023-05-10T02:08:51.346Z,100384.81
2023-05-10T02:11:17.569Z,100374.28
2023-05-10T02:13:43.804Z,100380.88
2023-05-10T02:16:10.056Z,100347.72
2023-05-10T02:18:36.285Z,100329.72
2023-05-10T02:21:02.798Z,100345.78
2023-05-10T02:23:29.499Z,100344.75
2023-05-10T02:25:55.751Z,100347.31
2023-05-10T02:28:22.199Z,100352.81
2023-05-10T02:30:48.404Z,100363.94
2023-05-10T02:33:14.642Z,100374.69
2023-05-10T02:35:40.846Z,100395.66
2023-05-10T02:38:07.066Z,100427.47
2023-05-10T02:40:33.397Z,100446.28
2023-05-10T02:42:59.642Z,100465.75
2023-05-10T02:45:26.944Z,100437.25
2023-05-10T02:47:53.203Z,100426.94
2023-05-10T02:50:19.791Z,100471.31
2023-05-10T02:52:51.019Z,100483.25
2023-05-10T02:55:17.282Z,100447.31
2023-05-10T02:57:49.000Z,100436.09
2023-05-10T03:00:15.391Z,100435.03
2023-05-10T03:02:41.804Z,100424.13
2023-05-10T03:05:08.187Z,100389.66
2023-05-10T03:07:34.441Z,100390.41
2023-05-10T03:10:00.810Z,100445.38
2023-05-10T03:12:30.438Z,100486.03
2023-05-10T03:15:23.073Z,100488.28
2023-05-10T03:17:57.041Z,100463.59
2023-05-10T03:20:25.359Z,100450.72
2023-05-10T03:22:52.832Z,100455.38
2023-05-10T03:25:19.036Z,100445.94
2023-05-10T03:27:45.238Z,100438.66
2023-05-10T03:30:11.980Z,100444.84
2023-05-10T03:32:38.220Z,100449.09
2023-05-10T03:35:08.247Z,100451.41
2023-05-10T03:37:34.446Z,100442.53
2023-05-10T03:40:00.727Z,100404.19
2023-05-10T03:42:26.938Z,100490.63
2023-05-10T03:44:53.159Z,100515.66
2023-05-10T03:47:19.369Z,100454.78
2023-05-10T03:49:45.570Z,100451.88
2023-05-10T03:52:11.856Z,100460.69
2023-05-10T03:54:38.074Z,100454.41
2023-05-10T03:57:04.456Z,100455.59
2023-05-10T03:59:30.911Z,100407.88
2023-05-10T04:01:57.195Z,100431.06
2023-05-10T04:04:23.442Z,100401.59
2023-05-10T04:06:49.652Z,100422.94
2023-05-10T04:09:15.875Z,100493.22
2023-05-10T04:11:42.080Z,100463.09
2023-05-10T04:14:08.452Z,100488.31
2023-05-10T04:16:34.808Z,100436.09
2023-05-10T04:19:01.178Z,100482.88
2023-05-10T04:21:27.398Z,100461.34
2023-05-10T04:23:54.016Z,100391.28
2023-05-10T04:26:20.350Z,100405.13
2023-05-10T04:28:48.912Z,100412.16
2023-05-10T04:31:22.721Z,100389.78
2023-05-10T04:33:48.968Z,100361.72
2023-05-10T04:36:15.209Z,100347.94
2023-05-10T04:38:43.730Z,100333.28
2023-05-10T04:41:10.546Z,100374.22
2023-05-10T04:43:36.824Z,100351.66
2023-05-10T04:46:03.331Z,100345.66
2023-05-10T04:48:31.356Z,100340.34
2023-05-10T04:50:57.843Z,100318.25
2023-05-10T04:53:24.376Z,100263.75
2023-05-10T04:55:57.951Z,100217.34
2023-05-10T04:58:24.170Z,100139.78
2023-05-10T05:00:50.391Z,100094.31
2023-05-10T05:03:16.687Z,100058.19
2023-05-10T05:05:43.002Z,100061.09
2023-05-10T05:08:09.418Z,100006.13
2023-05-10T05:10:35.626Z,99982.56
2023-05-10T05:13:01.900Z,99981.28
2023-05-10T05:15:28.177Z,100039.88
2023-05-10T05:17:54.408Z,100039.34
2023-05-10T05:20:20.683Z,99978.19
2023-05-10T05:22:46.905Z,99947.84
2023-05-10T05:25:13.414Z,99831.31
2023-05-10T05:27:39.627Z,99788.31
2023-05-10T05:30:06.184Z,99667.03
2023-05-10T05:32:32.538Z,99576.09
2023-05-10T05:34:58.759Z,99565.59
2023-05-10T05:37:24.986Z,99570.38
2023-05-10T05:39:51.208Z,99425.78
2023-05-10T05:42:17.435Z,99510.44
2023-05-10T05:44:43.658Z,99471.56
2023-05-10T05:47:09.971Z,99415.00
2023-05-10T05:49:36.195Z,99425.06
2023-05-10T05:52:04.769Z,99301.06
2023-05-10T05:54:31.062Z,99292.72
2023-05-10T05:56:58.864Z,99441.28
2023-05-10T05:59:26.631Z,99396.53
2023-05-10T06:01:52.873Z,99396.66
2023-05-10T06:04:19.402Z,99313.97
2023-05-10T06:06:45.651Z,99247.63
2023-05-10T06:09:11.841Z,99355.19
2023-05-10T06:11:38.170Z,99261.13
2023-05-10T06:14:04.712Z,99264.22
2023-05-10T06:16:33.864Z,99293.88
2023-05-10T06:19:00.097Z,99281.78
2023-05-10T06:21:26.338Z,99340.19
2023-05-10T06:23:53.836Z,99283.22
2023-05-10T06:26:20.108Z,99310.38
2023-05-10T06:28:46.323Z,99221.97
2023-05-10T06:31:12.603Z,99244.72
2023-05-10T06:33:38.837Z,99278.63
2023-05-10T06:36:05.134Z,99153.63
2023-05-10T06:38:31.334Z,99256.88
2023-05-10T06:40:57.556Z,99250.25
2023-05-10T06:43:23.746Z,99226.66
2023-05-10T06:45:50.123Z,98966.53
2023-05-10T06:48:16.426Z,98901.47
2023-05-10T06:50:48.613Z,99022.59
2023-05-10T06:53:19.004Z,98850.28
2023-05-10T06:55:49.875Z,99014.41
2023-05-10T06:58:17.191Z,99045.06
2023-05-10T07:00:43.742Z,99089.41
2023-05-10T07:03:16.142Z,98858.16
2023-05-10T07:05:42.473Z,98901.28
2023-05-10T07:08:08.742Z,98909.16
2023-05-10T07:10:36.116Z,98754.38
2023-05-10T07:13:03.453Z,98793.81
2023-05-10T07:15:31.640Z,98700.19
2023-05-10T07:17:58.089Z,98814.72
2023-05-10T07:20:24.490Z,98645.53
2023-05-10T07:22:50.756Z,98691.66
2023-05-10T07:25:17.447Z,98545.88
2023-05-10T07:27:51.308Z,98716.47
2023-05-10T07:30:19.663Z,98681.63
2023-05-10T07:32:45.980Z,98584.53
2023-05-10T07:35:12.248Z,98546.00
2023-05-10T07:37:38.780Z,98684.66
2023-05-10T07:40:07.301Z,98736.66
2023-05-10T07:42:36.007Z,98466.06
2023-05-10T07:45:02.233Z,98482.19
2023-05-10T07:47:28.594Z,98598.16
2023-05-10T07:49:55.052Z,98452.25
2023-05-10T07:52:22.673Z,98593.84
2023-05-10T07:54:49.200Z,98404.66
2023-05-10T07:57:15.449Z,98312.19
2023-05-10T07:59:42.798Z,98260.19
2023-05-10T08:02:09.145Z,98297.13
2023-05-10T08:04:35.510Z,98357.00
2023-05-10T08:07:01.818Z,98581.81
2023-05-10T08:09:28.183Z,98575.88
2023-05-10T08:11:54.401Z,98311.63
2023-05-10T08:14:20.725Z,98391.63
2023-05-10T08:16:47.179Z,98474.88
2023-05-10T08:19:13.407Z,98387.88
2023-05-10T08:21:47.696Z,98353.03
2023-05-10T08:24:17.019Z,98552.81
2023-05-10T08:26:44.826Z,98282.75
2023-05-10T08:29:11.364Z,98460.41
2023-05-10T08:31:37.640Z,98293.06
2023-05-10T08:34:04.145Z,98347.44
2023-05-10T08:36:34.015Z,98338.00
2023-05-10T08:41:53.130Z,98180.88
2023-05-10T08:44:19.395Z,98347.91
2023-05-10T08:46:46.963Z,98303.13
2023-05-10T08:49:14.308Z,98373.38
2023-05-10T08:51:43.821Z,98445.25
2023-05-10T08:54:10.164Z,98545.56
2023-05-10T08:56:36.775Z,98336.44
2023-05-10T08:59:03.013Z,98193.53
2023-05-10T09:01:29.364Z,98239.75
2023-05-10T09:03:55.729Z,98231.81
2023-05-10T09:06:22.081Z,98178.34
2023-05-10T09:08:48.311Z,98409.91
2023-05-10T09:11:14.579Z,98173.41
2023-05-10T09:13:41.252Z,98106.31
2023-05-10T09:16:20.380Z,98268.38
2023-05-10T09:18:48.374Z,98301.16
2023-05-10T09:21:14.807Z,98371.34
2023-05-10T09:23:43.988Z,98335.06
2023-05-10T09:26:10.981Z,98289.94
2023-05-10T09:28:56.372Z,98083.13
2023-05-10T09:31:22.807Z,98127.91
2023-05-10T09:33:55.064Z,98253.84
2023-05-10T09:36:26.847Z,98160.47
2023-05-10T09:38:57.779Z,98357.09
2023-05-10T09:41:43.948Z,97780.84
2023-05-10T09:44:19.637Z,97667.72
2023-05-10T09:46:49.618Z,97857.00
2023-05-10T09:49:15.907Z,97851.38
2023-05-10T09:51:42.189Z,97950.06
2023-05-10T09:54:18.246Z,97994.66
2023-05-10T09:56:44.493Z,97942.41
2023-05-10T09:59:11.486Z,97957.47
2023-05-10T10:01:38.134Z,98012.34
2023-05-10T10:04:08.268Z,98106.94
2023-05-10T10:06:38.065Z,98216.84
2023-05-10T10:09:04.597Z,98092.03
2023-05-10T10:11:30.837Z,97859.28
2023-05-10T10:13:57.068Z,98198.94
2023-05-10T10:16:23.298Z,98130.97
2023-05-10T10:18:49.617Z,98144.16
2023-05-10T10:21:15.963Z,97981.66
2023-05-10T10:23:42.199Z,98200.09
2023-05-10T10:26:08.509Z,98011.72
2023-05-10T10:28:34.680Z,98056.44
2023-05-10T10:31:01.913Z,98081.81
2023-05-10T10:33:40.021Z,98274.56
2023-05-10T10:36:06.329Z,98117.97
2023-05-10T10:38:47.873Z,98215.03
2023-05-10T10:41:33.171Z,98241.28
2023-05-10T10:44:18.323Z,98034.03
2023-05-10T10:47:03.266Z,98185.56
2023-05-10T10:49:31.534Z,98180.13
2023-05-10T10:52:16.680Z,98246.81
2023-05-10T10:54:47.851Z,98209.44
2023-05-10T10:57:14.447Z,98179.91
2023-05-10T10:59:43.754Z,98280.06
2023-05-10T11:02:09.966Z,98153.78
2023-05-10T11:04:42.639Z,98324.84
2023-05-10T11:07:18.049Z,98355.53
2023-05-10T11:09:44.263Z,98218.03
2023-05-10T11:12:10.492Z,98270.88
2023-05-10T11:14:36.720Z,98461.94
2023-05-10T11:17:02.990Z,98433.31
2023-05-10T11:19:29.206Z,98219.66
2023-05-10T11:22:04.667Z,98044.84
2023-05-10T11:24:30.879Z,98558.69
2023-05-10T11:26:57.125Z,98058.69
2023-05-10T11:29:23.334Z,98069.91
2023-05-10T11:31:49.913Z,98234.53
2023-05-10T11:34:28.681Z,98443.16
2023-05-10T11:36:55.292Z,98491.81
2023-05-10T11:39:21.782Z,98368.50
2023-05-10T11:41:48.984Z,98055.28
2023-05-10T11:44:15.192Z,98251.81
2023-05-10T11:46:41.478Z,98037.03
2023-05-10T11:49:07.736Z,98196.50
2023-05-10T11:51:36.925Z,98166.25
2023-05-10T11:54:06.137Z,98317.41
2023-05-10T11:56:33.263Z,98412.78
2023-05-10T11:58:59.474Z,98103.34
2023-05-10T12:01:26.489Z,98301.38
2023-05-10T12:03:53.310Z,98192.97
2023-05-10T12:06:19.804Z,98146.28
2023-05-10T12:08:49.124Z,98118.97
2023-05-10T12:11:15.354Z,98433.31
2023-05-10T12:13:42.037Z,98363.03
2023-05-10T12:16:18.230Z,97970.09
2023-05-10T12:18:44.728Z,97897.31
2023-05-10T12:21:13.936Z,98073.03
2023-05-10T12:23:40.276Z,98239.94
2023-05-10T12:26:06.489Z,98377.22
2023-05-10T12:28:32.998Z,98103.69
2023-05-10T12:30:59.963Z,98185.50
2023-05-10T12:33:26.179Z,98481.91
2023-05-10T12:35:52.951Z,98454.28
2023-05-10T12:38:28.711Z,98255.09
2023-05-10T12:40:54.943Z,98247.13
2023-05-10T12:43:21.235Z,98329.00
2023-05-10T12:45:47.752Z,98200.59
2023-05-10T12:48:14.108Z,98607.53
2023-05-10T12:50:40.337Z,98313.44
2023-05-10T12:53:06.544Z,98541.78
2023-05-10T12:55:32.747Z,98439.47
2023-05-10T12:57:59.202Z,98493.47
2023-05-10T13:00:25.472Z,98646.34
2023-05-10T13:02:51.748Z,98651.69
2023-05-10T13:05:17.964Z,98605.28
2023-05-10T13:07:44.500Z,98754.84
2023-05-10T13:10:10.925Z,98780.16
2023-05-10T13:12:37.211Z,98692.34
2023-05-10T13:15:03.723Z,98756.56
2023-05-10T13:17:30.693Z,98784.66
2023-05-10T13:19:58.299Z,98736.03
2023-05-10T13:22:36.374Z,98857.31
2023-05-10T13:25:06.263Z,98796.47
2023-05-10T13:27:32.548Z,98831.09
2023-05-10T13:29:58.781Z,99060.44
2023-05-10T13:32:25.041Z,98807.69
2023-05-10T13:34:51.285Z,98940.13
2023-05-10T13:37:17.506Z,98817.41
2023-05-10T13:39:43.711Z,98606.78
2023-05-10T13:42:10.121Z,98656.44
2023-05-10T13:44:36.368Z,98765.84
2023-05-10T13:47:02.584Z,98742.19
2023-05-10T13:49:28.804Z,98959.75
2023-05-10T13:51:55.035Z,98807.53
2023-05-10T13:54:21.308Z,98929.00
2023-05-10T13:56:47.528Z,98908.47
2023-05-10T13:59:13.914Z,99110.66
2023-05-10T14:01:40.208Z,99022.19
2023-05-10T14:04:06.515Z,99137.88
2023-05-10T14:06:32.766Z,99248.75
2023-05-10T14:08:58.968Z,99164.16
2023-05-10T14:11:25.192Z,99213.72
2023-05-10T14:13:51.392Z,99273.28
2023-05-10T14:16:17.673Z,99111.97
2023-05-10T14:18:44.145Z,99296.59
2023-05-10T14:21:10.416Z,99333.31
2023-05-10T14:23:36.610Z,99279.50
2023-05-10T14:26:02.832Z,99124.28
2023-05-10T14:28:29.110Z,99347.00
2023-05-10T14:30:56.704Z,99409.84
2023-05-10T14:33:22.912Z,99182.97
2023-05-10T14:35:49.185Z,98982.03
2023-05-10T14:38:15.430Z,99125.28
2023-05-10T14:40:41.718Z,99099.56
2023-05-10T14:43:07.946Z,99149.75
2023-05-10T14:45:34.269Z,99352.78
2023-05-10T14:48:00.792Z,99203.41
2023-05-10T14:50:36.537Z,99184.19
2023-05-10T14:53:03.450Z,99247.72
2023-05-10T14:55:29.656Z,99154.63
2023-05-10T14:57:55.864Z,99268.94
2023-05-10T15:00:22.185Z,99346.56
2023-05-10T15:02:49.054Z,99427.47
2023-05-10T15:05:16.005Z,99559.69
2023-05-10T15:07:42.854Z,99609.38
2023-05-10T15:10:09.267Z,99541.63
2023-05-10T15:12:35.492Z,99497.69
2023-05-10T15:15:01.717Z,99483.28
2023-05-10T15:17:27.980Z,99592.91
2023-05-10T15:19:54.218Z,99779.00
2023-05-10T15:22:20.443Z,99873.50
2023-05-10T15:24:46.666Z,99881.22
2023-05-10T15:27:12.877Z,99801.31
2023-05-10T15:29:39.116Z,99874.50
2023-05-10T15:32:05.331Z,99753.69
2023-05-10T15:34:33.164Z,99707.84
2023-05-10T15:37:00.518Z,99721.88
2023-05-10T15:39:26.761Z,99764.78
2023-05-10T15:41:52.995Z,99825.66
2023-05-10T15:44:19.195Z,99910.94
2023-05-10T15:46:46.422Z,99970.88
2023-05-10T15:49:12.659Z,99951.53
2023-05-10T15:51:38.900Z,99872.41
2023-05-10T15:54:07.479Z,99919.53
2023-05-10T15:56:34.225Z,99874.75
2023-05-10T15:59:00.448Z,99883.59
2023-05-10T16:01:26.723Z,99902.75
2023-05-10T16:03:53.058Z,99899.84
2023-05-10T16:06:19.304Z,99914.34
2023-05-10T16:08:45.529Z,99917.50
2023-05-10T16:11:11.771Z,99958.31
2023-05-10T16:13:38.015Z,99968.06
2023-05-10T16:16:04.383Z,100091.28
2023-05-10T16:18:30.682Z,100139.00
2023-05-10T16:20:56.917Z,100233.06
2023-05-10T16:23:23.138Z,100279.28
2023-05-10T16:25:49.368Z,100306.53
2023-05-10T16:28:17.435Z,100377.44
2023-05-10T16:30:43.648Z,100340.84
2023-05-10T16:33:09.942Z,100375.50
2023-05-10T16:35:36.191Z,100437.34
2023-05-10T16:38:02.418Z,100560.38
2023-05-10T16:40:28.623Z,100638.31
2023-05-10T16:42:54.830Z,100702.97
2023-05-10T16:45:21.023Z,100735.78
2023-05-10T16:47:47.282Z,100677.78
2023-05-10T16:50:13.512Z,100667.31
2023-05-10T16:52:39.973Z,100649.41
2023-05-10T16:55:06.288Z,100627.56
2023-05-10T16:57:32.503Z,100580.31
2023-05-10T16:59:58.711Z,100628.28
2023-05-10T17:02:24.980Z,100609.88
2023-05-10T17:04:51.252Z,100565.50
2023-05-10T17:07:17.480Z,100585.91
2023-05-10T17:09:43.682Z,100628.38
2023-05-10T17:12:09.936Z,100699.72
2023-05-10T17:14:39.197Z,100716.72
2023-05-10T17:17:05.435Z,100721.97
2023-05-10T17:19:31.681Z,100752.09
2023-05-10T17:21:57.911Z,100765.81
2023-05-10T17:24:24.126Z,100783.16
2023-05-10T17:26:50.333Z,100782.69
2023-05-10T17:29:16.616Z,100793.53
2023-05-10T17:31:42.939Z,100786.44
2023-05-10T17:34:09.225Z,100801.50
2023-05-10T17:36:35.706Z,100772.19
2023-05-10T17:39:01.913Z,100767.44
2023-05-10T17:41:28.130Z,100747.63
2023-05-10T17:43:54.411Z,100743.91
2023-05-10T17:46:20.700Z,100742.72
2023-05-10T17:48:46.954Z,100732.81
2023-05-10T17:51:13.174Z,100768.53
2023-05-10T17:53:39.549Z,100756.63
2023-05-10T17:56:05.924Z,100775.44
2023-05-10T17:58:32.135Z,100765.13
2023-05-10T18:00:58.392Z,100772.03
2023-05-10T18:03:24.607Z,100735.03
2023-05-10T18:05:50.849Z,100718.63
2023-05-10T18:08:17.051Z,100685.22
2023-05-10T18:10:43.267Z,100658.88
2023-05-10T18:13:09.505Z,100676.59
2023-05-10T18:15:35.735Z,100693.09
2023-05-10T18:18:02.338Z,100693.50
2023-05-10T18:20:28.596Z,100704.03
2023-05-10T18:22:55.124Z,100641.59
2023-05-10T18:25:21.352Z,100548.75
2023-05-10T18:27:47.584Z,100558.00
2023-05-10T18:30:14.009Z,100525.25
2023-05-10T18:32:40.320Z,100658.09
2023-05-10T18:35:06.908Z,100598.91
2023-05-10T18:37:33.139Z,100550.06
2023-05-10T18:39:59.388Z,100531.06
2023-05-10T18:42:25.599Z,100485.94
2023-05-10T18:44:51.812Z,100449.44
2023-05-10T18:47:18.059Z,100441.25
2023-05-10T18:49:44.281Z,100433.03
2023-05-10T18:52:10.498Z,100436.47
2023-05-10T18:54:36.717Z,100426.78
2023-05-10T18:57:02.911Z,100567.59
2023-05-10T18:59:29.119Z,100658.38
2023-05-10T19:01:57.115Z,100625.03
2023-05-10T19:04:23.864Z,100593.63
2023-05-10T19:06:50.094Z,100570.03
2023-05-10T19:09:16.320Z,100560.16
2023-05-10T19:11:42.518Z,100545.81
2023-05-10T19:14:08.861Z,100524.69
2023-05-10T19:16:35.854Z,100522.34
2023-05-10T19:19:02.431Z,100538.19
2023-05-10T19:21:28.753Z,100541.91
2023-05-10T19:23:58.320Z,100544.53
2023-05-10T19:26:24.647Z,100557.03
2023-05-10T19:28:51.249Z,100562.13
2023-05-10T19:31:17.539Z,100569.88
2023-05-10T19:33:43.864Z,100584.47
2023-05-10T19:36:10.129Z,100614.13
2023-05-10T19:38:36.772Z,100632.66
2023-05-10T19:41:03.088Z,100639.00
2023-05-10T19:43:33.336Z,100640.06
2023-05-10T19:46:00.694Z,100632.09
2023-05-10T19:48:26.975Z,100693.53
2023-05-10T19:50:53.335Z,100691.47
2023-05-10T19:53:19.550Z,100678.94
2023-05-10T19:55:45.759Z,100662.28
2023-05-10T19:58:11.958Z,100651.22
2023-05-10T20:00:38.255Z,100649.13
2023-05-10T20:03:04.888Z,100673.97
2023-05-10T20:05:32.125Z,100663.63
2023-05-10T20:07:58.325Z,100650.09
2023-05-10T20:10:26.901Z,100619.03
2023-05-10T20:12:53.403Z,100636.25
2023-05-10T20:15:22.645Z,100664.56
2023-05-10T20:17:49.215Z,100668.25
2023-05-10T20:20:15.649Z,100669.31
2023-05-10T20:22:42.788Z,100663.56
2023-05-10T20:25:09.131Z,100675.97
2023-05-10T20:27:35.335Z,100757.44
2023-05-10T20:30:01.557Z,100736.06
2023-05-10T20:32:27.795Z,100746.69
2023-05-10T20:34:54.017Z,100742.72
2023-05-10T20:37:20.227Z,100738.56
2023-05-10T20:39:47.931Z,100739.31
2023-05-10T20:42:19.055Z,100733.50
2023-05-10T20:44:45.276Z,100726.38
2023-05-10T20:47:11.515Z,100790.50
2023-05-10T20:49:37.836Z,100795.50
2023-05-10T20:52:04.496Z,100786.25
2023-05-10T20:54:30.719Z,100757.25
2023-05-10T20:56:56.956Z,100752.53
2023-05-10T20:59:23.161Z,100765.47
2023-05-10T21:01:49.438Z,100762.59
2023-05-10T21:04:15.666Z,100738.88
2023-05-10T21:06:42.624Z,100739.66
2023-05-10T21:09:08.824Z,100731.56
2023-05-10T21:11:36.157Z,100743.66
2023-05-10T21:14:02.472Z,100733.59
2023-05-10T21:16:28.757Z,100726.50
2023-05-10T21:18:55.038Z,100712.31
2023-05-10T21:21:21.267Z,100713.16
2023-05-10T21:23:47.464Z,100730.09
2023-05-10T21:26:13.688Z,100740.91
2023-05-10T21:28:40.216Z,100731.16
2023-05-10T21:31:06.809Z,100714.06
2023-05-10T21:33:33.019Z,100718.03
2023-05-10T21:35:59.318Z,100721.75
2023-05-10T21:38:27.028Z,100716.75
2023-05-10T21:40:53.249Z,100722.03
2023-05-10T21:43:19.455Z,100710.63
2023-05-10T21:45:45.683Z,100740.66
2023-05-10T21:48:12.023Z,100815.63
2023-05-10T21:50:38.252Z,100829.25
2023-05-10T21:53:04.481Z,100795.25
2023-05-10T21:55:30.695Z,100781.00
2023-05-10T21:57:57.366Z,100774.19
2023-05-10T22:00:23.582Z,100768.13
2023-05-10T22:02:49.911Z,100792.38
2023-05-10T22:05:16.277Z,100773.81
2023-05-10T22:07:42.492Z,100726.38
2023-05-10T22:10:08.834Z,100716.09
2023-05-10T22:12:35.072Z,100701.09
2023-05-10T22:15:10.174Z,100808.06
2023-05-10T22:17:37.940Z,100857.78
2023-05-10T22:20:04.625Z,100781.78
2023-05-10T22:22:30.837Z,100715.38
2023-05-10T22:24:57.067Z,100689.59
2023-05-10T22:27:23.341Z,100716.25
2023-05-10T22:29:49.559Z,100712.53
2023-05-10T22:32:15.779Z,100700.44
2023-05-10T22:34:41.978Z,100712.59
2023-05-10T22:37:08.240Z,100715.53
2023-05-10T22:39:34.487Z,100707.88
2023-05-10T22:42:00.706Z,100711.84
2023-05-10T22:44:26.924Z,100723.19
2023-05-10T22:46:53.271Z,100714.00
2023-05-10T22:49:19.507Z,100720.56
2023-05-10T22:51:45.805Z,100715.09
2023-05-10T22:54:12.044Z,100726.94
2023-05-10T22:56:38.279Z,100734.34
2023-05-10T22:59:04.500Z,100769.34
2023-05-10T23:01:30.812Z,100794.66
2023-05-10T23:03:57.050Z,100788.34
2023-05-10T23:06:23.268Z,100775.41
2023-05-10T23:08:49.506Z,100771.28
2023-05-10T23:11:15.736Z,100766.03
2023-05-10T23:13:41.970Z,100762.13
2023-05-10T23:16:08.248Z,100770.84
2023-05-10T23:18:34.543Z,100778.50
2023-05-10T23:21:00.760Z,100778.50
2023-05-10T23:23:27.002Z,100776.44
2023-05-10T23:25:53.229Z,100782.25
2023-05-10T23:28:19.438Z,100791.47
2023-05-10T23:30:45.646Z,100785.44
2023-05-10T23:33:11.935Z,100788.56
2023-05-10T23:35:38.177Z,100762.75
2023-05-10T23:38:04.524Z,100742.78
2023-05-10T23:40:30.746Z,100725.13
2023-05-10T23:42:56.971Z,100717.50
2023-05-10T23:45:23.195Z,100696.19
2023-05-10T23:47:49.494Z,100717.81
2023-05-10T23:50:15.867Z,100719.38
2023-05-10T23:52:42.152Z,100706.50
2023-05-10T23:55:08.539Z,100708.63
2023-05-10T23:57:34.782Z,100708.63
